createdAt,value
2019-02-28T00:02:41.230Z,13.30
2019-02-28T00:07:49.632Z,12.77
2019-02-28T00:12:56.473Z,11.47
2019-02-28T00:18:03.672Z,13.73
2019-02-28T00:23:09.802Z,15.33
2019-02-28T00:28:16.006Z,11.87
2019-02-28T00:33:21.645Z,12.20
2019-02-28T00:38:29.614Z,11.70
2019-02-28T00:43:34.612Z,13.97
2019-02-28T00:48:40.380Z,16.00
2019-02-28T00:53:47.040Z,24.33
2019-02-28T00:58:52.615Z,12.57
2019-02-28T01:03:59.122Z,20.10
2019-02-28T01:09:06.900Z,16.13
2019-02-28T01:14:13.654Z,16.37
2019-02-28T01:19:19.239Z,16.53
2019-02-28T01:24:25.261Z,14.53
2019-02-28T01:29:32.963Z,14.77
2019-02-28T01:34:38.730Z,18.33
2019-02-28T01:39:46.323Z,14.00
2019-02-28T01:44:52.317Z,12.93
2019-02-28T01:49:58.819Z,17.07
2019-02-28T01:55:06.204Z,17.53
2019-02-28T02:00:19.383Z,15.03
2019-02-28T02:05:25.581Z,14.63
2019-02-28T02:10:31.401Z,17.13
2019-02-28T02:15:37.158Z,15.07
2019-02-28T02:20:43.332Z,16.63
2019-02-28T02:25:48.923Z,17.33
2019-02-28T02:30:56.125Z,15.77
2019-02-28T02:36:03.111Z,16.67
2019-02-28T02:41:10.454Z,18.30
2019-02-28T02:46:20.246Z,17.70
2019-02-28T02:51:24.815Z,17.73
2019-02-28T02:56:30.667Z,20.53
2019-02-28T03:01:36.399Z,17.07
2019-02-28T03:06:45.968Z,17.77
2019-02-28T03:11:51.170Z,20.40
2019-02-28T03:16:56.807Z,20.27
2019-02-28T03:22:02.620Z,21.20
2019-02-28T03:27:08.567Z,22.00
2019-02-28T03:32:14.213Z,19.73
2019-02-28T03:37:19.783Z,18.70
2019-02-28T03:42:28.513Z,19.83
2019-02-28T03:47:34.466Z,20.27
2019-02-28T03:52:43.888Z,22.80
2019-02-28T03:57:48.941Z,19.60
2019-02-28T04:02:58.763Z,21.07
2019-02-28T04:08:02.339Z,21.03
2019-02-28T04:13:08.176Z,24.57
2019-02-28T04:18:13.898Z,21.90
2019-02-28T04:23:19.509Z,22.40
2019-02-28T04:28:25.665Z,24.80
2019-02-28T04:33:37.691Z,22.37
2019-02-28T04:38:39.319Z,24.30
2019-02-28T04:43:45.247Z,25.23
2019-02-28T04:48:50.877Z,25.93
2019-02-28T04:53:57.267Z,26.70
2019-02-28T04:59:03.282Z,28.43
2019-02-28T05:04:09.056Z,31.23
2019-02-28T05:09:15.263Z,30.67
2019-02-28T05:14:23.694Z,31.37
2019-02-28T05:19:32.272Z,29.27
2019-02-28T05:24:39.491Z,33.60
2019-02-28T05:29:45.035Z,30.87
2019-02-28T05:34:51.042Z,35.63
2019-02-28T05:39:57.445Z,34.27
2019-02-28T05:45:03.332Z,35.00
2019-02-28T05:50:15.163Z,34.10
2019-02-28T05:55:18.148Z,35.90
2019-02-28T06:00:25.219Z,38.03
2019-02-28T06:05:30.793Z,39.27
2019-02-28T06:10:36.710Z,36.13
2019-02-28T06:15:42.276Z,41.23
2019-02-28T06:20:50.953Z,38.53
2019-02-28T06:25:55.850Z,39.80
2019-02-28T06:31:03.458Z,45.90
2019-02-28T06:36:09.862Z,38.43
2019-02-28T06:41:15.654Z,45.13
2019-02-28T06:46:21.767Z,47.40
2019-02-28T06:51:28.018Z,46.03
2019-02-28T06:56:35.590Z,49.70
2019-02-28T07:01:41.485Z,42.43
2019-02-28T07:06:48.659Z,48.90
2019-02-28T07:11:55.760Z,50.10
2019-02-28T07:17:01.664Z,52.20
2019-02-28T07:22:09.414Z,54.33
2019-02-28T07:27:15.049Z,53.13
2019-02-28T07:32:20.808Z,51.77
2019-02-28T07:37:26.597Z,50.83
2019-02-28T07:42:37.574Z,58.93
2019-02-28T07:47:42.839Z,54.80
2019-02-28T07:52:49.079Z,63.70
2019-02-28T07:57:56.590Z,56.07
2019-02-28T08:03:04.525Z,58.57
2019-02-28T08:08:10.775Z,64.60
2019-02-28T08:13:18.517Z,68.40
2019-02-28T08:18:24.497Z,56.57
2019-02-28T08:23:31.354Z,56.57
2019-02-28T08:28:38.591Z,70.63
2019-02-28T08:33:48.113Z,74.23
2019-02-28T08:38:52.130Z,75.20
2019-02-28T08:43:59.283Z,77.40
2019-02-28T08:49:07.192Z,80.13
2019-02-28T08:54:13.882Z,83.60
2019-02-28T08:59:22.540Z,71.30
2019-02-28T09:04:27.635Z,79.03
2019-02-28T09:09:34.487Z,83.90
2019-02-28T09:14:42.386Z,85.10
2019-02-28T09:19:48.184Z,76.80
2019-02-28T09:24:53.828Z,77.70
2019-02-28T09:29:59.399Z,74.33
2019-02-28T09:35:12.266Z,75.93
2019-02-28T09:40:15.933Z,74.97
2019-02-28T09:45:23.606Z,71.80
2019-02-28T09:50:29.867Z,81.63
2019-02-28T09:55:36.924Z,74.13
2019-02-28T10:00:43.280Z,82.47
2019-02-28T10:05:50.736Z,83.97
2019-02-28T10:10:57.035Z,71.60
2019-02-28T10:16:02.676Z,68.43
2019-02-28T10:21:08.813Z,79.23
2019-02-28T10:26:17.251Z,70.83
2019-02-28T10:31:35.225Z,69.43
2019-02-28T10:36:31.798Z,77.67
2019-02-28T10:41:37.530Z,76.57
2019-02-28T10:46:45.097Z,66.87
2019-02-28T10:51:50.854Z,65.23
2019-02-28T10:56:58.487Z,64.60
2019-02-28T11:02:04.307Z,74.67
2019-02-28T11:07:11.922Z,71.17
2019-02-28T11:12:20.026Z,70.40
2019-02-28T11:17:26.928Z,69.50
2019-02-28T11:22:32.936Z,68.20
2019-02-28T11:27:41.869Z,72.40
2019-02-28T11:32:48.183Z,76.20
2019-02-28T11:37:54.361Z,66.43
2019-02-28T11:43:03.843Z,74.27
2019-02-28T11:48:18.880Z,65.37
2019-02-28T11:53:24.110Z,68.37
2019-02-28T11:58:30.525Z,67.80
2019-02-28T12:03:36.940Z,70.43
2019-02-28T12:08:45.063Z,76.70
2019-02-28T12:13:51.735Z,73.83
2019-02-28T12:19:00.244Z,66.47
2019-02-28T12:24:06.746Z,72.77
2019-02-28T12:29:13.803Z,70.03
2019-02-28T12:34:20.541Z,63.27
2019-02-28T12:39:27.328Z,64.77
2019-02-28T12:44:33.570Z,66.50
2019-02-28T12:49:40.317Z,60.27
2019-02-28T12:54:47.867Z,61.40
2019-02-28T12:59:53.431Z,63.50
2019-02-28T13:05:00.439Z,61.43
2019-02-28T13:10:09.952Z,61.13
2019-02-28T13:15:18.248Z,68.33
2019-02-28T13:20:32.386Z,68.73
2019-02-28T13:25:36.103Z,72.13
2019-02-28T13:30:49.035Z,68.93
2019-02-28T13:35:49.722Z,71.03
2019-02-28T13:40:55.444Z,78.00
2019-02-28T13:46:01.473Z,70.83
2019-02-28T13:51:08.559Z,72.27
2019-02-28T13:56:14.964Z,67.27
2019-02-28T14:01:21.371Z,73.23
2019-02-28T14:06:27.116Z,64.53
2019-02-28T14:11:34.640Z,67.40
2019-02-28T14:16:41.236Z,67.37
2019-02-28T14:21:46.974Z,67.57
2019-02-28T14:26:53.305Z,68.60
2019-02-28T14:31:59.723Z,71.90
2019-02-28T14:37:05.604Z,66.27
2019-02-28T14:42:12.949Z,81.50
2019-02-28T14:47:18.526Z,71.63
2019-02-28T14:52:24.102Z,71.27
2019-02-28T14:57:30.916Z,74.50
2019-02-28T15:02:36.483Z,77.00
2019-02-28T15:07:43.066Z,68.07
2019-02-28T15:12:49.698Z,71.77
2019-02-28T15:17:55.337Z,69.97
2019-02-28T15:23:01.336Z,73.33
2019-02-28T15:28:10.707Z,68.60
2019-02-28T15:33:16.407Z,70.10
2019-02-28T15:38:24.020Z,65.97
2019-02-28T15:43:29.829Z,69.37
2019-02-28T15:48:36.580Z,70.83
2019-02-28T15:53:42.737Z,70.73
2019-02-28T15:58:49.045Z,72.73
2019-02-28T16:03:56.879Z,78.40
2019-02-28T16:09:06.652Z,80.97
2019-02-28T16:14:14.979Z,74.70
2019-02-28T16:19:23.089Z,81.10
2019-02-28T16:24:29.136Z,84.93
2019-02-28T16:29:35.569Z,86.97
2019-02-28T16:34:42.425Z,83.80
2019-02-28T16:39:49.832Z,88.10
2019-02-28T16:44:57.468Z,84.80
2019-02-28T16:50:06.072Z,91.07
2019-02-28T16:55:13.103Z,92.67
2019-02-28T17:00:19.200Z,91.10
2019-02-28T17:05:27.906Z,95.20
2019-02-28T17:10:40.231Z,92.87
2019-02-28T17:16:02.645Z,88.10
2019-02-28T17:21:08.651Z,96.00
2019-02-28T17:26:14.203Z,87.37
2019-02-28T17:31:25.160Z,79.07
2019-02-28T17:36:33.156Z,85.77
2019-02-28T17:41:38.988Z,83.47
2019-02-28T17:46:46.580Z,83.57
2019-02-28T17:51:58.499Z,87.63
2019-02-28T17:57:16.566Z,80.23
2019-02-28T18:02:40.379Z,83.07
2019-02-28T18:08:01.404Z,76.93
2019-02-28T18:13:20.093Z,74.97
2019-02-28T18:18:36.379Z,75.87
2019-02-28T18:24:09.506Z,79.67
2019-02-28T18:29:39.776Z,78.60
2019-02-28T18:34:45.340Z,79.00
2019-02-28T18:39:52.286Z,74.23
2019-02-28T18:44:57.858Z,82.13
2019-02-28T18:50:03.580Z,78.50
2019-02-28T18:55:09.478Z,87.00
2019-02-28T19:00:18.197Z,83.37
2019-02-28T19:05:25.946Z,88.07
2019-02-28T19:10:33.266Z,90.90
2019-02-28T19:15:39.857Z,87.07
2019-02-28T19:20:45.519Z,85.47
2019-02-28T19:25:51.968Z,89.97
2019-02-28T19:30:57.530Z,102.77
2019-02-28T19:36:04.468Z,88.80
2019-02-28T19:41:10.565Z,96.63
2019-02-28T19:46:16.116Z,103.30
2019-02-28T19:51:21.750Z,103.53
2019-02-28T19:56:27.579Z,107.50
2019-02-28T20:01:33.891Z,99.40
2019-02-28T20:06:39.952Z,102.63
2019-02-28T20:11:49.451Z,101.97
2019-02-28T20:16:55.233Z,103.80
2019-02-28T20:22:06.225Z,97.50
2019-02-28T20:27:13.305Z,106.03
2019-02-28T20:32:20.910Z,102.10
2019-02-28T20:37:26.884Z,110.70
2019-02-28T20:42:36.185Z,103.83
2019-02-28T20:47:42.713Z,92.80
2019-02-28T20:52:50.228Z,86.17
2019-02-28T20:57:55.902Z,95.13
2019-02-28T21:03:01.837Z,97.13
2019-02-28T21:08:11.755Z,94.70
2019-02-28T21:13:17.830Z,92.20
2019-02-28T21:18:26.822Z,91.80
2019-02-28T21:23:32.541Z,84.13
2019-02-28T21:28:43.444Z,85.93
2019-02-28T21:33:49.370Z,85.70
2019-02-28T21:38:58.259Z,75.30
2019-02-28T21:44:04.051Z,75.50
2019-02-28T21:49:13.277Z,75.97
2019-02-28T21:54:19.213Z,72.17
2019-02-28T21:59:24.823Z,65.83
2019-02-28T22:04:33.517Z,70.50
2019-02-28T22:09:39.260Z,64.90
2019-02-28T22:14:49.103Z,70.70
2019-02-28T22:19:57.299Z,69.67
2019-02-28T22:25:06.037Z,57.60
2019-02-28T22:30:35.339Z,54.20
2019-02-28T22:35:45.066Z,56.80
2019-02-28T22:40:52.737Z,60.20
2019-02-28T22:46:04.355Z,64.77
2019-02-28T22:51:10.617Z,63.37
2019-02-28T22:56:16.813Z,55.70
2019-02-28T23:01:25.241Z,62.27
2019-02-28T23:06:35.429Z,61.53
2019-02-28T23:11:41.074Z,60.17
2019-02-28T23:16:47.156Z,60.50
2019-02-28T23:21:54.657Z,57.70
2019-02-28T23:27:14.472Z,59.30
2019-02-28T23:32:35.200Z,58.83
2019-02-28T23:37:41.500Z,61.23
2019-02-28T23:42:47.065Z,58.50
2019-02-28T23:47:52.700Z,63.00
2019-02-28T23:52:58.263Z,57.73
2019-02-28T23:58:04.300Z,59.80
